createdAt,value
2018-02-19T18:22:49.493Z,5.90
2018-02-19T18:25:16.520Z,4.90
2018-02-19T18:36:25.760Z,3.40
2018-02-19T18:38:54.085Z,3.00
2018-02-19T18:41:21.575Z,3.00
2018-02-19T18:43:49.074Z,2.50
2018-02-19T18:46:16.933Z,2.00
2018-02-19T18:49:05.758Z,2.00
2018-02-19T18:51:33.452Z,2.00
2018-02-19T18:54:01.261Z,1.70
2018-02-19T18:56:35.208Z,1.50
2018-02-19T18:59:03.736Z,1.20
2018-02-19T19:01:31.268Z,1.20
2018-02-19T19:03:58.844Z,1.10
2018-02-19T19:06:27.544Z,0.90
2018-02-19T19:09:07.008Z,0.80
2018-02-19T19:11:39.826Z,0.80
2018-02-19T19:17:05.744Z,0.70
2018-02-19T19:19:34.216Z,0.50
2018-02-19T19:22:06.475Z,0.40
2018-02-19T19:24:34.899Z,0.30
2018-02-19T19:27:06.872Z,0.30
2018-02-19T19:29:35.853Z,0.30
2018-02-19T19:32:04.580Z,0.20
2018-02-19T19:34:34.104Z,0.10
2018-02-19T19:37:22.702Z,0.10
2018-02-19T19:40:07.400Z,0.00
2018-02-19T19:45:36.904Z,0.00
2018-02-19T19:48:05.197Z,-0.10
2018-02-19T19:50:32.776Z,-0.10
2018-02-19T19:53:00.283Z,-0.10
2018-02-19T19:58:05.941Z,-0.30
2018-02-19T20:00:43.275Z,-0.30
2018-02-19T20:03:11.614Z,-0.40
2018-02-19T20:05:39.165Z,-0.40
2018-02-19T20:08:08.502Z,-0.30
2018-02-19T20:10:36.772Z,-0.30
2018-02-19T20:13:07.409Z,-0.30
2018-02-19T20:15:34.957Z,-0.30
2018-02-19T20:18:02.664Z,-0.30
2018-02-19T20:37:26.514Z,-0.50
2018-02-19T20:40:04.258Z,-0.50
2018-02-19T20:42:35.738Z,-0.60
2018-02-19T20:45:06.577Z,-0.60
2018-02-19T20:47:34.096Z,-0.60
2018-02-19T20:50:03.723Z,-0.60
2018-02-19T20:52:32.496Z,-0.60
2018-02-19T20:55:00.213Z,-0.70
2018-02-19T20:57:36.674Z,-0.60
2018-02-19T21:00:22.128Z,-0.60
2018-02-19T21:02:57.553Z,-0.70
2018-02-19T21:05:25.337Z,-0.80
2018-02-19T21:10:58.198Z,-0.90
2018-02-19T21:13:25.758Z,-0.90
2018-02-19T21:15:54.094Z,-0.90
2018-02-19T21:18:21.682Z,-0.90
2018-02-19T21:23:42.892Z,-1.00
2018-02-19T21:26:10.416Z,-1.00
2018-02-19T21:28:38.717Z,-0.90
2018-02-19T21:31:06.406Z,-1.00
2018-02-19T21:33:40.047Z,-1.00
2018-02-19T21:39:15.115Z,-1.10
2018-02-19T21:41:57.040Z,-1.20
2018-02-19T21:44:25.810Z,-1.30
2018-02-19T21:47:14.273Z,-1.30
2018-02-19T21:49:58.372Z,-1.30
2018-02-19T21:55:18.514Z,-1.30
2018-02-19T22:00:36.843Z,-1.30
2018-02-19T22:03:04.561Z,-1.30
2018-02-19T22:05:33.295Z,-1.40
2018-02-19T22:08:08.990Z,-1.50
2018-02-19T22:10:36.493Z,-1.60
2018-02-19T22:13:04.952Z,-1.60
2018-02-19T22:15:37.474Z,-1.60
2018-02-19T22:18:05.852Z,-1.60
2018-02-19T22:20:36.742Z,-1.60
2018-02-19T22:23:04.569Z,-1.60
2018-02-19T22:25:32.193Z,-1.70
2018-02-19T22:28:00.772Z,-1.80
2018-02-19T22:30:28.532Z,-1.90
2018-02-19T22:33:34.372Z,-1.90
2018-02-19T22:42:03.868Z,-1.90
2018-02-19T22:44:37.563Z,-1.90
2018-02-19T22:52:40.987Z,-1.80
2018-02-19T22:55:10.328Z,-1.80
2018-02-19T23:00:33.147Z,-1.90
2018-02-19T23:03:01.042Z,-1.90
2018-02-19T23:05:30.720Z,-1.90
2018-02-19T23:07:59.054Z,-2.00
2018-02-19T23:13:08.493Z,-2.10
2018-02-19T23:15:36.197Z,-2.10
2018-02-19T23:18:05.713Z,-2.20
2018-02-19T23:23:54.138Z,-2.30
2018-02-19T23:29:14.308Z,-2.30
2018-02-19T23:31:43.122Z,-2.30
2018-02-19T23:34:11.771Z,-2.30
2018-02-19T23:39:29.492Z,-2.30
2018-02-19T23:44:36.463Z,-2.40
2018-02-19T23:53:24.605Z,-2.60
